Time;durP1;ratioP1;P1;durP2;ratioP2;P2;SDS_P1;SDS_P2;PMS_P1;PMS_P2;Temp;Humidity;BMP_temperature;BMP_pressure;BME280_temperature;BME280_humidity;BME280_pressure;Samples;Min_cycle;Max_cycle;Signal;HPM_P1;HPM_P2
2023/06/12 00:00:20;;;;;;;5.28;3.40;;;21.40;67.30;;;;;;5094641;28;20473;-85
2023/06/12 00:02:45;;;;;;;5.60;3.60;;;21.30;66.90;;;;;;5093348;28;20085;-85
2023/06/12 00:05:11;;;;;;;3.95;3.35;;;21.30;67.10;;;;;;5092639;28;20590;-85
2023/06/12 00:07:37;;;;;;;4.78;3.75;;;21.30;67.70;;;;;;5094042;28;20047;-85
2023/06/12 00:10:03;;;;;;;6.45;3.67;;;21.20;67.70;;;;;;5093706;28;20028;-85
2023/06/12 00:12:28;;;;;;;4.35;3.90;;;21.20;68.20;;;;;;5093345;28;20085;-84
2023/06/12 00:14:54;;;;;;;7.63;3.90;;;21.10;68.50;;;;;;5094029;28;20024;-80
2023/06/12 00:17:19;;;;;;;5.80;3.80;;;21.10;69.50;;;;;;5093436;28;20024;-84
2023/06/12 00:19:45;;;;;;;4.85;3.70;;;21.00;69.00;;;;;;5097823;28;20058;-84
2023/06/12 00:22:11;;;;;;;6.43;3.72;;;21.00;69.00;;;;;;5098907;28;20020;-84
2023/06/12 00:24:37;;;;;;;4.75;3.60;;;21.00;69.20;;;;;;5099466;28;20028;-84
2023/06/12 00:27:02;;;;;;;7.35;4.00;;;21.00;69.30;;;;;;5097669;28;20028;-84
2023/06/12 00:29:28;;;;;;;5.25;3.97;;;21.00;69.30;;;;;;5098778;28;20032;-84
2023/06/12 00:31:54;;;;;;;5.85;4.00;;;21.00;69.90;;;;;;5097621;28;20077;-80
2023/06/12 00:34:19;;;;;;;5.20;3.60;;;20.90;69.30;;;;;;5096821;28;20035;-84
2023/06/12 00:36:45;;;;;;;4.38;3.40;;;20.90;69.20;;;;;;5097452;28;20024;-85
2023/06/12 00:39:10;;;;;;;5.70;4.28;;;20.90;69.60;;;;;;5097513;28;20419;-84
2023/06/12 00:41:36;;;;;;;6.57;3.67;;;20.90;69.30;;;;;;5098034;28;20044;-84
2023/06/12 00:44:01;;;;;;;5.07;4.05;;;20.80;69.50;;;;;;5097155;28;20031;-84
2023/06/12 00:46:27;;;;;;;4.65;3.55;;;20.80;69.20;;;;;;5098165;28;20144;-84
2023/06/12 00:48:53;;;;;;;4.25;3.40;;;20.80;69.30;;;;;;5096873;28;20055;-84
2023/06/12 00:51:18;;;;;;;9.05;3.78;;;20.60;69.20;;;;;;5097673;28;20115;-84
2023/06/12 00:53:44;;;;;;;5.00;3.40;;;20.50;69.30;;;;;;5098039;28;20028;-84
2023/06/12 00:56:10;;;;;;;4.97;3.75;;;20.40;69.20;;;;;;5096973;28;20036;-84
2023/06/12 00:58:36;;;;;;;5.07;3.40;;;20.30;69.30;;;;;;5096448;28;20059;-84
2023/06/12 01:01:02;;;;;;;4.35;3.33;;;20.30;69.90;;;;;;5097245;28;20073;-84
2023/06/12 01:03:27;;;;;;;6.07;3.50;;;20.20;69.50;;;;;;5097562;28;20024;-85
2023/06/12 01:05:54;;;;;;;4.40;3.75;;;20.20;69.80;;;;;;5096827;28;20031;-85
2023/06/12 01:08:49;;;;;;;4.70;3.42;;;20.20;70.10;;;;;;5096851;28;20097;-85
2023/06/12 01:11:17;;;;;;;6.15;3.60;;;20.30;70.60;;;;;;5096256;28;20028;-84
2023/06/12 01:13:43;;;;;;;5.38;3.95;;;20.30;70.30;;;;;;5096524;28;20480;-84
2023/06/12 01:16:08;;;;;;;5.50;3.30;;;20.40;70.60;;;;;;5095940;28;20115;-84
2023/06/12 01:18:34;;;;;;;4.30;3.38;;;20.40;70.50;;;;;;5096486;28;20531;-84
2023/06/12 01:21:09;;;;;;;4.78;3.38;;;20.40;70.50;;;;;;5096844;28;20028;-83
2023/06/12 01:24:12;;;;;;;7.50;3.72;;;20.30;70.80;;;;;;5096125;28;20423;-84
2023/06/12 01:26:46;;;;;;;6.32;3.70;;;20.40;70.80;;;;;;5096047;28;20024;-85
2023/06/12 01:30:04;;;;;;;3.60;3.30;;;20.30;70.20;;;;;;5095948;28;20039;-84
2023/06/12 01:32:31;;;;;;;5.57;3.33;;;20.30;70.70;;;;;;5096041;28;20028;-84
2023/06/12 01:35:03;;;;;;;4.03;3.63;;;20.20;70.50;;;;;;5096028;28;20093;-81
2023/06/12 01:37:49;;;;;;;8.48;3.72;;;20.30;70.60;;;;;;5096021;28;20487;-85
2023/06/12 01:40:16;;;;;;;5.75;3.50;;;20.30;70.20;;;;;;5095203;28;20407;-85
2023/06/12 01:42:42;;;;;;;4.97;3.88;;;20.30;70.10;;;;;;5096629;28;20025;-86
2023/06/12 01:45:08;;;;;;;5.78;3.97;;;20.20;70.40;;;;;;5096030;28;20030;-85
2023/06/12 01:47:34;;;;;;;5.38;3.58;;;20.20;70.80;;;;;;5095541;28;20024;-85
2023/06/12 01:49:59;;;;;;;4.95;3.38;;;20.20;71.40;;;;;;5096129;28;20027;-81
2023/06/12 01:52:26;;;;;;;5.05;3.80;;;20.10;71.80;;;;;;5095245;28;20032;-86
2023/06/12 01:54:51;;;;;;;4.22;3.60;;;20.10;71.50;;;;;;5096591;28;20055;-85
2023/06/12 01:57:20;;;;;;;6.72;3.67;;;20.10;71.90;;;;;;5094827;28;20031;-85
2023/06/12 01:59:47;;;;;;;6.75;3.55;;;20.10;71.80;;;;;;5095956;28;20024;-85
2023/06/12 02:02:12;;;;;;;5.07;3.80;;;20.20;72.00;;;;;;5094877;28;20051;-86
2023/06/12 02:04:38;;;;;;;6.78;3.85;;;20.10;72.10;;;;;;5095631;28;20362;-85
2023/06/12 02:07:04;;;;;;;5.18;3.88;;;20.10;72.30;;;;;;5095778;28;20028;-84
2023/06/12 02:09:30;;;;;;;4.22;3.45;;;20.00;72.70;;;;;;5095164;28;20036;-84
2023/06/12 02:11:56;;;;;;;5.97;3.72;;;20.00;72.20;;;;;;5095979;28;20033;-85
2023/06/12 02:14:23;;;;;;;6.85;3.65;;;20.00;72.00;;;;;;5095572;28;20024;-85
2023/06/12 02:16:53;;;;;;;4.00;3.25;;;20.00;71.70;;;;;;5095113;28;20028;-85
2023/06/12 02:19:22;;;;;;;4.03;3.47;;;19.90;71.90;;;;;;5094525;28;20150;-85
2023/06/12 02:21:49;;;;;;;4.55;3.50;;;19.90;72.10;;;;;;5095660;28;20031;-85
2023/06/12 02:24:15;;;;;;;6.78;3.40;;;19.90;71.90;;;;;;5094564;28;20028;-84
2023/06/12 02:26:41;;;;;;;6.95;3.92;;;19.90;71.60;;;;;;5095737;28;20024;-84
2023/06/12 02:29:15;;;;;;;4.03;3.42;;;19.90;71.70;;;;;;5094447;28;20047;-84
2023/06/12 02:31:41;;;;;;;4.35;3.65;;;19.90;72.00;;;;;;5094696;28;20032;-85
2023/06/12 02:34:07;;;;;;;5.57;3.75;;;19.90;72.90;;;;;;5094878;28;20031;-84
2023/06/12 02:36:39;;;;;;;6.70;3.83;;;19.80;73.20;;;;;;5095562;28;20164;-84
2023/06/12 02:39:08;;;;;;;5.30;3.70;;;19.80;73.60;;;;;;5094165;28;20077;-84
2023/06/12 02:41:35;;;;;;;4.95;4.10;;;19.70;74.10;;;;;;5095090;28;20040;-83
2023/06/12 02:44:01;;;;;;;7.22;4.00;;;19.70;74.40;;;;;;5095082;28;20054;-83
2023/06/12 02:46:27;;;;;;;5.75;4.20;;;19.70;74.60;;;;;;5094496;28;20491;-85
2023/06/12 02:48:52;;;;;;;5.63;3.70;;;19.70;74.90;;;;;;5094453;28;20119;-84
2023/06/12 02:51:18;;;;;;;6.18;3.90;;;19.70;75.10;;;;;;5095028;28;20140;-84
2023/06/12 02:53:44;;;;;;;5.72;4.20;;;19.80;75.30;;;;;;5095517;28;20035;-84
2023/06/12 02:56:09;;;;;;;5.32;3.85;;;19.70;75.60;;;;;;5093875;28;20472;-84
2023/06/12 02:58:35;;;;;;;9.35;4.10;;;19.60;76.20;;;;;;5095613;28;20023;-84
2023/06/12 03:01:02;;;;;;;7.07;4.28;;;19.50;76.60;;;;;;5095079;28;20028;-84
2023/06/12 03:03:29;;;;;;;5.40;4.28;;;19.60;77.20;;;;;;5095153;28;20472;-84
2023/06/12 03:05:54;;;;;;;6.40;3.78;;;19.60;77.20;;;;;;5094390;28;20024;-85
2023/06/12 03:08:20;;;;;;;10.50;4.43;;;19.60;77.50;;;;;;5094846;28;20514;-84
2023/06/12 03:10:45;;;;;;;8.02;3.90;;;19.50;77.80;;;;;;5093987;28;20032;-84
2023/06/12 03:13:14;;;;;;;7.78;4.28;;;19.60;77.90;;;;;;5094611;28;20032;-84
2023/06/12 03:15:40;;;;;;;6.13;4.22;;;19.50;78.00;;;;;;5094931;28;20024;-84
2023/06/12 03:18:05;;;;;;;5.70;4.15;;;19.60;78.40;;;;;;5093533;28;20024;-84
2023/06/12 03:20:34;;;;;;;10.95;4.43;;;19.60;78.30;;;;;;5093988;28;20031;-85
2023/06/12 03:23:00;;;;;;;5.55;3.72;;;19.60;78.30;;;;;;5111315;28;20027;-84
2023/06/12 03:25:26;;;;;;;6.05;4.10;;;19.40;78.50;;;;;;5113700;28;20042;-85
2023/06/12 03:27:52;;;;;;;6.75;4.35;;;19.40;78.50;;;;;;5114949;28;20023;-85
2023/06/12 03:30:18;;;;;;;7.07;4.05;;;19.40;78.70;;;;;;5113563;28;20405;-84
2023/06/12 03:32:43;;;;;;;5.63;4.53;;;19.40;78.60;;;;;;5114127;28;20019;-84
2023/06/12 03:35:09;;;;;;;8.00;4.38;;;19.30;78.60;;;;;;5113258;28;20019;-85
2023/06/12 03:37:35;;;;;;;5.85;4.03;;;19.40;78.80;;;;;;5114303;28;20023;-84
2023/06/12 03:40:00;;;;;;;5.95;4.30;;;19.30;78.70;;;;;;5114402;28;20067;-84
2023/06/12 03:42:26;;;;;;;5.90;4.30;;;19.30;78.80;;;;;;5114038;28;20047;-85
2023/06/12 03:44:52;;;;;;;5.88;4.13;;;19.20;79.00;;;;;;5114394;28;20473;-84
2023/06/12 03:47:18;;;;;;;5.53;4.10;;;19.20;79.20;;;;;;5114288;28;20453;-84
2023/06/12 03:49:45;;;;;;;6.68;4.20;;;19.10;79.40;;;;;;5114064;28;20079;-84
2023/06/12 03:52:11;;;;;;;4.68;3.97;;;19.10;79.90;;;;;;5114230;28;20032;-84
2023/06/12 03:54:37;;;;;;;5.53;4.25;;;19.10;79.90;;;;;;5112943;28;20028;-84
2023/06/12 03:57:03;;;;;;;6.35;3.90;;;19.10;80.00;;;;;;5113785;28;20034;-82
2023/06/12 03:59:29;;;;;;;5.93;3.97;;;19.10;80.10;;;;;;5114375;28;20028;-85
2023/06/12 04:01:56;;;;;;;4.80;4.00;;;19.10;79.60;;;;;;5113714;28;20027;-84
2023/06/12 04:04:22;;;;;;;5.95;3.88;;;19.00;79.20;;;;;;5112774;28;20484;-84
2023/06/12 04:06:47;;;;;;;5.63;4.07;;;19.10;79.40;;;;;;5113558;28;20026;-84
2023/06/12 04:09:14;;;;;;;5.60;3.97;;;19.10;79.00;;;;;;5112852;28;20110;-84
2023/06/12 04:11:40;;;;;;;5.72;4.05;;;19.10;79.20;;;;;;5114952;28;20031;-84
2023/06/12 04:14:06;;;;;;;4.88;3.78;;;19.10;79.70;;;;;;5114049;28;20020;-79
2023/06/12 04:16:32;;;;;;;5.90;4.00;;;19.10;79.20;;;;;;5113676;28;20024;-84
2023/06/12 04:19:03;;;;;;;5.05;3.92;;;19.10;79.40;;;;;;5113607;28;20140;-84
2023/06/12 04:21:32;;;;;;;5.63;3.92;;;19.10;79.30;;;;;;5113965;28;20035;-84
2023/06/12 04:24:00;;;;;;;5.78;3.75;;;19.10;79.30;;;;;;5113434;28;20490;-84
2023/06/12 04:26:27;;;;;;;6.07;3.90;;;19.10;79.60;;;;;;5112877;28;20028;-84
2023/06/12 04:28:54;;;;;;;5.28;4.07;;;19.10;80.70;;;;;;5113264;28;20038;-84
2023/06/12 04:31:20;;;;;;;6.57;4.30;;;19.10;80.60;;;;;;5113642;28;20118;-84
2023/06/12 04:33:48;;;;;;;5.50;4.18;;;19.10;80.10;;;;;;5113293;28;20020;-84
2023/06/12 04:36:17;;;;;;;5.20;4.10;;;19.10;80.00;;;;;;5113732;28;20062;-84
2023/06/12 04:38:43;;;;;;;5.45;4.05;;;19.10;80.40;;;;;;5114534;28;20027;-84
2023/06/12 04:41:10;;;;;;;5.35;4.20;;;19.10;81.10;;;;;;5112501;28;20075;-80
2023/06/12 04:43:36;;;;;;;5.38;4.40;;;19.10;81.30;;;;;;5112969;28;20028;-84
2023/06/12 04:46:02;;;;;;;5.60;3.90;;;19.10;81.40;;;;;;5113162;28;20050;-84
2023/06/12 04:48:28;;;;;;;5.68;3.90;;;19.10;81.50;;;;;;5112401;28;20476;-84
2023/06/12 04:50:58;;;;;;;8.48;4.38;;;19.10;81.10;;;;;;5113008;28;20495;-85
2023/06/12 04:53:29;;;;;;;6.38;4.65;;;19.10;81.20;;;;;;5112236;28;20035;-84
2023/06/12 04:55:58;;;;;;;5.18;4.15;;;19.10;80.70;;;;;;5113544;28;20476;-84
2023/06/12 04:58:24;;;;;;;7.82;4.20;;;19.20;80.60;;;;;;5112507;28;20043;-85
2023/06/12 05:00:50;;;;;;;5.95;4.25;;;19.20;80.80;;;;;;5113231;28;20388;-84
2023/06/12 05:03:17;;;;;;;5.50;3.95;;;19.20;81.00;;;;;;5112453;28;20030;-84
2023/06/12 05:05:46;;;;;;;7.30;4.68;;;19.20;81.00;;;;;;5115857;28;20024;-84
2023/06/12 05:08:13;;;;;;;4.65;3.67;;;19.20;81.10;;;;;;5116145;28;20023;-81
2023/06/12 05:10:40;;;;;;;6.50;4.55;;;19.20;81.60;;;;;;5116932;28;20054;-84
2023/06/12 05:13:05;;;;;;;6.13;3.95;;;19.20;81.70;;;;;;5116880;28;20020;-85
2023/06/12 05:15:31;;;;;;;5.32;4.20;;;19.20;81.60;;;;;;5116047;28;20093;-84
2023/06/12 05:17:56;;;;;;;7.00;4.15;;;19.30;81.60;;;;;;5117498;28;20026;-85
2023/06/12 05:20:22;;;;;;;6.20;4.15;;;19.30;81.90;;;;;;5116261;28;20027;-85
2023/06/12 05:22:48;;;;;;;4.97;3.95;;;19.30;82.30;;;;;;5116806;28;20031;-85
2023/06/12 05:25:15;;;;;;;4.40;3.90;;;19.30;82.30;;;;;;5115815;28;20092;-82
2023/06/12 05:27:40;;;;;;;6.25;4.20;;;19.40;83.30;;;;;;5116553;28;20024;-84
2023/06/12 05:30:07;;;;;;;6.28;4.05;;;19.40;82.80;;;;;;5116223;28;20031;-85
2023/06/12 05:32:34;;;;;;;4.45;3.78;;;19.40;82.90;;;;;;5114664;28;20026;-84
2023/06/12 05:35:00;;;;;;;8.35;4.07;;;19.50;82.70;;;;;;5116171;28;20495;-84
2023/06/12 05:37:25;;;;;;;5.25;3.90;;;19.50;82.70;;;;;;5116473;28;20024;-83
2023/06/12 05:39:52;;;;;;;5.63;4.07;;;19.60;83.40;;;;;;5117253;28;20083;-85
2023/06/12 05:42:18;;;;;;;7.22;4.00;;;19.60;83.80;;;;;;5115014;28;20048;-84
2023/06/12 05:44:46;;;;;;;5.07;3.88;;;19.70;83.90;;;;;;5116730;28;20027;-84
2023/06/12 05:47:12;;;;;;;5.63;3.60;;;19.70;83.30;;;;;;5115947;28;20020;-81
2023/06/12 05:49:37;;;;;;;4.43;3.47;;;19.80;83.00;;;;;;5115205;28;20073;-84
2023/06/12 05:52:03;;;;;;;4.15;3.60;;;19.80;83.00;;;;;;5115778;28;20036;-84
2023/06/12 05:54:29;;;;;;;4.78;3.70;;;19.80;82.70;;;;;;5115837;28;20023;-84
2023/06/12 05:56:55;;;;;;;5.05;3.67;;;19.90;83.00;;;;;;5117374;28;20085;-84
2023/06/12 05:59:23;;;;;;;5.75;3.60;;;20.00;83.10;;;;;;5116623;28;20035;-84
2023/06/12 06:01:49;;;;;;;4.80;3.60;;;20.00;82.70;;;;;;5116073;28;20019;-85
2023/06/12 06:04:14;;;;;;;7.03;3.60;;;20.00;82.70;;;;;;5114549;28;20063;-84
2023/06/12 06:06:40;;;;;;;4.63;4.00;;;20.00;83.30;;;;;;5115543;28;20028;-84
2023/06/12 06:09:06;;;;;;;5.80;3.33;;;20.10;82.40;;;;;;5115610;28;20132;-85
2023/06/12 06:11:32;;;;;;;7.22;3.63;;;20.20;82.90;;;;;;5115006;28;20422;-85
2023/06/12 06:13:58;;;;;;;5.93;3.78;;;20.20;82.60;;;;;;5116379;28;20028;-85
2023/06/12 06:16:24;;;;;;;5.60;3.50;;;20.20;82.40;;;;;;5114118;28;20465;-84
2023/06/12 06:18:50;;;;;;;5.88;3.53;;;20.30;81.80;;;;;;5110367;27;20487;-84
2023/06/12 06:21:15;;;;;;;5.32;3.60;;;20.40;82.30;;;;;;5126453;27;20047;-84
2023/06/12 06:23:41;;;;;;;6.32;3.80;;;20.40;82.50;;;;;;5120076;27;20103;-85
2023/06/12 06:26:08;;;;;;;4.22;3.38;;;20.40;82.00;;;;;;5114772;27;20380;-82
2023/06/12 06:28:34;;;;;;;5.07;3.47;;;20.50;82.40;;;;;;5119218;27;20079;-84
2023/06/12 06:31:00;;;;;;;5.20;3.50;;;20.50;82.20;;;;;;5125179;27;20489;-84
2023/06/12 06:33:26;;;;;;;4.68;3.25;;;20.50;81.80;;;;;;5127615;27;20027;-84
2023/06/12 06:35:52;;;;;;;4.55;3.42;;;20.60;82.10;;;;;;5118677;27;20028;-83
2023/06/12 06:38:21;;;;;;;5.68;3.70;;;20.60;82.00;;;;;;5117844;27;20139;-84
2023/06/12 06:40:47;;;;;;;6.97;4.03;;;20.70;82.30;;;;;;5126889;27;20051;-84
2023/06/12 06:43:13;;;;;;;6.35;3.60;;;20.70;82.00;;;;;;5125438;27;20030;-84
2023/06/12 06:45:39;;;;;;;5.28;3.55;;;20.80;82.00;;;;;;5120341;27;20020;-83
2023/06/12 06:48:05;;;;;;;4.93;3.83;;;20.80;82.10;;;;;;5119923;27;20035;-83
2023/06/12 06:50:31;;;;;;;5.55;3.33;;;20.90;81.70;;;;;;5129186;27;20039;-84
2023/06/12 06:52:56;;;;;;;6.60;3.75;;;20.90;82.10;;;;;;5122634;27;20031;-84
2023/06/12 06:55:22;;;;;;;4.93;3.35;;;20.90;81.70;;;;;;5122473;27;20034;-84
2023/06/12 06:57:50;;;;;;;4.95;3.70;;;21.00;81.80;;;;;;5130628;27;20380;-84
2023/06/12 07:00:16;;;;;;;5.78;3.63;;;21.10;82.10;;;;;;5116194;27;20035;-83
2023/06/12 07:02:43;;;;;;;5.13;3.30;;;21.10;81.70;;;;;;5126993;27;20035;-84
2023/06/12 07:05:08;;;;;;;7.10;3.92;;;21.20;81.00;;;;;;5124003;27;20076;-83
2023/06/12 07:07:35;;;;;;;4.97;3.30;;;21.20;81.10;;;;;;5118971;27;20427;-83
2023/06/12 07:10:00;;;;;;;4.07;3.35;;;21.30;81.50;;;;;;5131387;27;20031;-81
2023/06/12 07:12:27;;;;;;;3.53;3.22;;;21.30;81.00;;;;;;5113001;27;20038;-84
2023/06/12 07:14:53;;;;;;;4.57;3.80;;;21.30;81.40;;;;;;5122480;27;20031;-84
2023/06/12 07:17:18;;;;;;;6.32;3.58;;;21.40;81.10;;;;;;5123659;27;20488;-84
2023/06/12 07:19:44;;;;;;;5.75;3.38;;;21.50;81.00;;;;;;5119743;27;20110;-84
2023/06/12 07:22:10;;;;;;;6.22;3.45;;;21.50;81.40;;;;;;5115404;27;20031;-83
2023/06/12 07:24:35;;;;;;;4.97;3.65;;;21.60;81.70;;;;;;5127936;27;20040;-83
2023/06/12 07:27:01;;;;;;;9.10;3.90;;;21.60;80.90;;;;;;5121977;27;20031;-84
2023/06/12 07:29:27;;;;;;;7.07;3.50;;;21.70;81.00;;;;;;5120757;27;20102;-83
2023/06/12 07:31:52;;;;;;;7.53;4.45;;;21.70;81.00;;;;;;5130944;27;20023;-82
2023/06/12 07:34:18;;;;;;;5.82;3.90;;;21.70;80.30;;;;;;5117022;27;20464;-84
2023/06/12 07:36:44;;;;;;;4.28;3.58;;;21.80;80.80;;;;;;5127675;27;20512;-84
2023/06/12 07:39:10;;;;;;;4.55;3.75;;;21.80;80.50;;;;;;5124795;27;20031;-84
2023/06/12 07:41:39;;;;;;;4.65;3.78;;;21.90;80.90;;;;;;5133520;27;20057;-84
2023/06/12 07:44:08;;;;;;;5.45;3.70;;;21.90;80.70;;;;;;5117349;27;20032;-84
2023/06/12 07:46:34;;;;;;;4.65;3.85;;;21.90;81.00;;;;;;5127948;27;20019;-84
2023/06/12 07:48:59;;;;;;;6.57;4.18;;;22.00;81.00;;;;;;5122223;27;20119;-84
2023/06/12 07:51:26;;;;;;;6.70;4.25;;;21.90;81.20;;;;;;5120857;27;20028;-84
2023/06/12 07:53:51;;;;;;;8.98;3.75;;;22.00;80.90;;;;;;5129739;27;20084;-84
2023/06/12 07:56:17;;;;;;;5.18;3.55;;;22.00;81.10;;;;;;5117217;27;20075;-83
2023/06/12 07:58:45;;;;;;;4.43;3.75;;;22.10;81.00;;;;;;5126258;27;20118;-84
2023/06/12 08:01:10;;;;;;;5.63;3.80;;;22.20;80.10;;;;;;5124054;27;20038;-83
2023/06/12 08:03:38;;;;;;;7.97;4.20;;;22.20;79.50;;;;;;5119981;27;20035;-84
2023/06/12 08:06:15;;;;;;;5.45;4.15;;;22.20;80.00;;;;;;5130548;27;20083;-83
2023/06/12 08:08:45;;;;;;;6.10;3.83;;;22.30;80.20;;;;;;5119329;27;20048;-83
2023/06/12 08:11:12;;;;;;;4.80;3.85;;;22.30;79.80;;;;;;5122598;28;20032;-84
2023/06/12 08:13:38;;;;;;;7.80;3.83;;;22.30;80.30;;;;;;5112803;28;20028;-84
2023/06/12 08:16:04;;;;;;;3.85;3.45;;;22.40;80.10;;;;;;5129948;28;20035;-84
2023/06/12 08:18:30;;;;;;;4.90;3.90;;;22.50;79.10;;;;;;5118807;28;20031;-84
2023/06/12 08:20:59;;;;;;;3.83;3.42;;;22.50;79.80;;;;;;5124810;28;20136;-84
2023/06/12 08:23:25;;;;;;;5.70;4.00;;;22.60;79.80;;;;;;5125611;28;20042;-84
2023/06/12 08:25:51;;;;;;;5.97;3.92;;;22.70;79.10;;;;;;5120343;28;20106;-83
2023/06/12 08:28:16;;;;;;;7.25;3.83;;;22.70;79.70;;;;;;5107931;28;20032;-81
2023/06/12 08:30:42;;;;;;;5.35;4.18;;;22.80;79.30;;;;;;5130355;28;20035;-84
2023/06/12 08:33:08;;;;;;;6.40;3.88;;;22.80;79.10;;;;;;5114183;28;20054;-84
2023/06/12 08:35:35;;;;;;;4.90;3.47;;;22.80;78.60;;;;;;5122161;28;20115;-84
2023/06/12 08:38:01;;;;;;;5.13;3.90;;;22.80;79.00;;;;;;5120239;28;20032;-84
2023/06/12 08:40:26;;;;;;;5.22;3.83;;;22.90;78.10;;;;;;5131713;27;20023;-83
2023/06/12 08:42:52;;;;;;;5.70;3.95;;;22.90;78.50;;;;;;5097992;28;20414;-84
2023/06/12 08:45:26;;;;;;;4.75;3.85;;;23.00;79.10;;;;;;5111420;28;20048;-84
2023/06/12 08:47:53;;;;;;;4.20;3.80;;;23.00;79.00;;;;;;5118743;27;20052;-83
2023/06/12 08:50:19;;;;;;;4.18;3.67;;;23.10;79.20;;;;;;5116203;28;20035;-83
2023/06/12 08:52:50;;;;;;;4.70;3.63;;;23.10;78.80;;;;;;5119018;27;20038;-84
2023/06/12 08:55:16;;;;;;;5.22;3.60;;;23.20;77.90;;;;;;5129246;27;20031;-84
2023/06/12 08:57:43;;;;;;;4.95;3.70;;;23.20;77.40;;;;;;5127778;27;20444;-84
2023/06/12 09:00:13;;;;;;;5.40;3.75;;;23.20;77.00;;;;;;5122449;27;20059;-84
2023/06/12 09:02:45;;;;;;;5.20;3.85;;;23.20;76.90;;;;;;5135623;27;20038;-84
2023/06/12 09:05:16;;;;;;;5.97;3.58;;;23.40;76.30;;;;;;5138074;27;20023;-84
2023/06/12 09:07:44;;;;;;;5.45;3.80;;;23.40;76.50;;;;;;5130018;27;20072;-84
2023/06/12 09:10:10;;;;;;;4.32;3.50;;;23.50;77.30;;;;;;5136581;27;20119;-84
2023/06/12 09:12:35;;;;;;;6.95;3.85;;;23.50;75.20;;;;;;5119116;27;20074;-83
2023/06/12 09:15:01;;;;;;;5.75;3.90;;;23.50;74.70;;;;;;5101144;28;20028;-84
2023/06/12 09:17:30;;;;;;;9.07;4.00;;;23.60;75.90;;;;;;5105356;28;20035;-83
2023/06/12 09:19:56;;;;;;;4.13;3.72;;;23.60;75.90;;;;;;5117190;28;20548;-84
2023/06/12 09:22:21;;;;;;;4.82;3.67;;;23.70;75.20;;;;;;5118524;27;20063;-80
2023/06/12 09:24:47;;;;;;;4.72;3.60;;;23.80;74.00;;;;;;5119498;27;20023;-83
2023/06/12 09:27:14;;;;;;;4.40;4.00;;;23.80;73.30;;;;;;5136348;27;20027;-83
2023/06/12 09:29:41;;;;;;;3.50;3.15;;;23.80;72.80;;;;;;5124578;27;20093;-83
2023/06/12 09:32:10;;;;;;;4.85;3.47;;;23.90;71.50;;;;;;5128308;27;20031;-84
2023/06/12 09:34:37;;;;;;;3.63;3.15;;;24.00;70.50;;;;;;5136577;27;20034;-84
2023/06/12 09:37:09;;;;;;;7.07;3.45;;;24.10;69.70;;;;;;5136593;27;20031;-84
2023/06/12 09:39:35;;;;;;;4.95;3.50;;;24.10;69.20;;;;;;5135923;27;20039;-83
2023/06/12 09:42:02;;;;;;;5.53;3.47;;;24.10;69.00;;;;;;5136758;27;20055;-84
2023/06/12 09:44:29;;;;;;;4.63;3.30;;;24.10;68.40;;;;;;5136062;27;20079;-83
2023/06/12 09:47:03;;;;;;;5.43;3.25;;;24.10;69.00;;;;;;5127095;27;20034;-84
2023/06/12 09:49:30;;;;;;;4.75;3.42;;;24.30;69.70;;;;;;5115660;28;20570;-84
2023/06/12 09:52:02;;;;;;;6.97;3.13;;;24.30;68.80;;;;;;5114141;28;20036;-84
2023/06/12 09:54:30;;;;;;;3.83;3.00;;;24.40;68.50;;;;;;5115212;28;20027;-83
2023/06/12 09:56:58;;;;;;;5.35;3.30;;;24.50;68.40;;;;;;5124245;27;20027;-81
2023/06/12 09:59:27;;;;;;;5.95;3.20;;;24.60;66.70;;;;;;5135572;27;20391;-81
2023/06/12 10:01:59;;;;;;;3.55;3.13;;;24.70;64.30;;;;;;5137386;27;20031;-83
2023/06/12 10:04:32;;;;;;;5.53;3.70;;;24.70;64.10;;;;;;5136628;27;20023;-77
2023/06/12 10:07:05;;;;;;;5.97;3.20;;;24.70;66.30;;;;;;5126071;27;20024;-83
2023/06/12 10:09:31;;;;;;;4.85;3.65;;;24.70;66.70;;;;;;5114950;28;20047;-82
2023/06/12 10:11:59;;;;;;;5.45;3.40;;;24.70;66.80;;;;;;5115285;27;20111;-83
2023/06/12 10:14:26;;;;;;;6.30;4.10;;;24.80;65.30;;;;;;5115759;28;20081;-79
2023/06/12 10:16:54;;;;;;;6.88;3.70;;;24.70;65.70;;;;;;5115171;28;20464;-82
2023/06/12 10:19:24;;;;;;;5.53;3.45;;;24.80;66.80;;;;;;5115914;28;20114;-83
2023/06/12 10:21:52;;;;;;;6.15;4.20;;;24.90;67.20;;;;;;5120692;27;20034;-84
2023/06/12 10:24:18;;;;;;;5.13;3.67;;;25.00;67.60;;;;;;5135449;27;20027;-83
2023/06/12 10:26:44;;;;;;;5.03;3.70;;;24.90;67.70;;;;;;5129189;27;20577;-83
2023/06/12 10:29:30;;;;;;;4.28;3.72;;;25.00;68.20;;;;;;5114354;28;20032;-83
2023/06/12 10:32:05;;;;;;;6.93;4.30;;;25.10;66.60;;;;;;5115029;28;20084;-83
2023/06/12 10:34:36;;;;;;;5.90;4.40;;;25.20;66.40;;;;;;5114118;28;20035;-83
2023/06/12 10:37:29;;;;;;;5.30;4.25;;;25.30;65.80;;;;;;5114829;28;20032;-83
2023/06/12 10:40:15;;;;;;;4.75;3.75;;;25.40;67.30;;;;;;5114595;28;20027;-83
2023/06/12 10:42:53;;;;;;;4.55;3.90;;;25.50;66.50;;;;;;5114345;28;20426;-83
2023/06/12 10:45:28;;;;;;;5.25;4.05;;;25.60;66.50;;;;;;5115530;28;20047;-82
2023/06/12 10:48:02;;;;;;;4.97;3.58;;;25.80;66.50;;;;;;5106277;27;20023;-82
2023/06/12 10:50:29;;;;;;;5.30;3.65;;;26.00;64.80;;;;;;5094091;28;20025;-80
2023/06/12 10:52:56;;;;;;;6.60;4.22;;;26.00;64.70;;;;;;5107409;28;20035;-83
2023/06/12 10:55:23;;;;;;;5.40;3.83;;;25.90;65.40;;;;;;5114412;28;20038;-83
2023/06/12 10:57:56;;;;;;;6.28;3.90;;;25.80;65.90;;;;;;5127275;27;20069;-83
2023/06/12 11:00:36;;;;;;;4.03;3.63;;;25.80;65.40;;;;;;5135869;27;20028;-83
2023/06/12 11:03:13;;;;;;;6.15;3.78;;;26.00;65.90;;;;;;5134533;27;20027;-84
2023/06/12 11:05:55;;;;;;;4.82;3.78;;;25.90;64.40;;;;;;5134332;27;20034;-82
2023/06/12 11:08:21;;;;;;;4.38;3.75;;;25.70;64.20;;;;;;5125920;27;20059;-83
2023/06/12 11:10:47;;;;;;;4.80;4.03;;;25.70;64.10;;;;;;5133722;27;20037;-81
2023/06/12 11:13:12;;;;;;;8.30;3.70;;;25.80;63.70;;;;;;5134221;27;20027;-83
2023/06/12 11:15:43;;;;;;;5.15;3.90;;;25.90;64.30;;;;;;5134966;27;20110;-80
2023/06/12 11:18:09;;;;;;;4.20;3.43;;;26.00;64.40;;;;;;5107087;27;20058;-82
2023/06/12 11:20:35;;;;;;;5.00;3.63;;;26.00;63.40;;;;;;5093886;28;20340;-82
2023/06/12 11:23:01;;;;;;;5.40;3.88;;;26.00;63.20;;;;;;5118253;27;20070;-83
2023/06/12 11:25:31;;;;;;;5.22;3.85;;;26.10;62.00;;;;;;5133692;27;20081;-79
2023/06/12 11:27:57;;;;;;;5.15;3.60;;;26.10;62.30;;;;;;5128753;27;20447;-83
2023/06/12 11:30:24;;;;;;;4.95;3.33;;;26.10;63.90;;;;;;5133607;27;20046;-83
2023/06/12 11:32:49;;;;;;;5.18;3.75;;;26.10;61.60;;;;;;5123143;27;20562;-83
2023/06/12 11:35:16;;;;;;;6.57;3.80;;;26.20;62.30;;;;;;5113362;28;20023;-83
2023/06/12 11:37:41;;;;;;;4.53;3.75;;;26.20;61.60;;;;;;5121529;27;20042;-83
2023/06/12 11:40:11;;;;;;;5.07;3.25;;;26.20;61.60;;;;;;5135453;27;20027;-83
2023/06/12 11:42:41;;;;;;;5.35;3.53;;;26.30;61.80;;;;;;5134385;27;20043;-83
2023/06/12 11:45:12;;;;;;;5.70;3.47;;;26.40;61.30;;;;;;5135299;27;20077;-84
2023/06/12 11:47:38;;;;;;;6.88;3.67;;;26.40;61.70;;;;;;5122810;27;20065;-83
2023/06/12 11:50:06;;;;;;;4.25;3.80;;;26.40;61.70;;;;;;5113853;28;20031;-84
2023/06/12 11:52:33;;;;;;;8.13;4.00;;;26.50;62.70;;;;;;5113653;28;20098;-83
2023/06/12 11:55:08;;;;;;;3.40;2.95;;;26.50;61.90;;;;;;5113262;28;20084;-83
2023/06/12 11:57:35;;;;;;;4.78;3.58;;;26.60;61.00;;;;;;5112800;27;20116;-84
2023/06/12 12:00:18;;;;;;;3.78;3.35;;;26.50;61.40;;;;;;5114407;28;20027;-82
2023/06/12 12:02:55;;;;;;;4.35;3.53;;;26.60;60.40;;;;;;5114034;28;20041;-84
2023/06/12 12:05:23;;;;;;;5.10;3.50;;;26.60;60.80;;;;;;5109071;28;20121;-82
2023/06/12 12:07:57;;;;;;;5.60;3.33;;;26.70;59.40;;;;;;5100689;28;20066;-83
2023/06/12 12:10:26;;;;;;;6.07;3.75;;;26.80;60.50;;;;;;5108526;28;20261;-84
2023/06/12 12:13:00;;;;;;;6.95;3.80;;;26.80;59.50;;;;;;5112736;28;20067;-83
2023/06/12 12:15:28;;;;;;;5.13;3.47;;;26.70;59.00;;;;;;5112301;28;20110;-84
2023/06/12 12:17:54;;;;;;;4.95;4.03;;;26.70;60.00;;;;;;5110012;28;20555;-83
2023/06/12 12:20:21;;;;;;;5.53;3.67;;;26.70;59.80;;;;;;5113380;28;20028;-83
2023/06/12 12:22:55;;;;;;;4.47;3.47;;;26.80;60.40;;;;;;5119855;28;20024;-84
2023/06/12 12:25:27;;;;;;;5.38;3.75;;;26.80;59.60;;;;;;5134794;28;20027;-83
2023/06/12 12:27:54;;;;;;;5.22;3.90;;;27.00;59.50;;;;;;5126486;28;20034;-84
2023/06/12 12:30:21;;;;;;;4.63;3.53;;;27.00;59.50;;;;;;5112523;28;20480;-83
2023/06/12 12:32:54;;;;;;;6.47;3.88;;;27.10;58.80;;;;;;5113550;28;20024;-83
2023/06/12 12:35:21;;;;;;;4.25;3.80;;;27.20;58.70;;;;;;5113245;28;20107;-83
2023/06/12 12:37:47;;;;;;;4.85;3.30;;;27.20;57.30;;;;;;5113322;28;20102;-83
2023/06/12 12:40:14;;;;;;;4.47;3.42;;;27.20;58.30;;;;;;5113759;28;20139;-83
2023/06/12 12:42:44;;;;;;;5.93;3.30;;;27.30;58.60;;;;;;5112574;28;20065;-84
2023/06/12 12:45:12;;;;;;;4.70;3.40;;;27.40;58.50;;;;;;5112915;28;20118;-83
2023/06/12 12:47:40;;;;;;;7.25;3.42;;;27.50;57.10;;;;;;5111486;28;20112;-83
2023/06/12 12:50:07;;;;;;;4.47;2.92;;;27.60;56.70;;;;;;5112356;28;20430;-83